Time;durP1;ratioP1;P1;durP2;ratioP2;P2;SDS_P1;SDS_P2;PMS_P1;PMS_P2;Temp;Humidity;BMP_temperature;BMP_pressure;BME280_temperature;BME280_humidity;BME280_pressure;Samples;Min_cycle;Max_cycle;Signal;HPM_P1;HPM_P2
2023/01/15 00:01:56;;;;;;;4.50;1.60;;;;;;;;;;4990366;28;20058;-50
2023/01/15 00:04:22;;;;;;;4.18;1.80;;;;;;;;;;4994847;28;20058;-51
2023/01/15 00:06:49;;;;;;;4.15;1.60;;;;;;;;;;4995929;28;20238;-50
2023/01/15 00:09:17;;;;;;;4.20;1.65;;;;;;;;;;5008769;28;20132;-54
2023/01/15 00:11:44;;;;;;;4.05;1.58;;;;;;;;;;4996542;28;20038;-52
2023/01/15 00:14:11;;;;;;;4.13;1.20;;;;;;;;;;4990747;28;20050;-54
2023/01/15 00:16:39;;;;;;;3.58;1.40;;;;;;;;;;5006566;28;20141;-50
2023/01/15 00:19:11;;;;;;;2.63;1.05;;;;;;;;;;4995044;28;20082;-49
2023/01/15 00:21:38;;;;;;;4.32;1.55;;;;;;;;;;4994150;28;20104;-51
2023/01/15 00:29:34;;;;;;;2.38;0.93;;;;;;;;;;5012866;28;20053;-51
2023/01/15 00:32:03;;;;;;;2.47;1.30;;;;;;;;;;5005397;28;20082;-50
2023/01/15 00:34:32;;;;;;;3.08;1.20;;;;;;;;;;4994692;28;20047;-51
2023/01/15 00:36:59;;;;;;;2.28;1.02;;;;;;;;;;4999987;28;20049;-50
2023/01/15 00:39:27;;;;;;;2.72;1.10;;;;;;;;;;4999928;28;20046;-53
2023/01/15 00:41:54;;;;;;;4.35;1.88;;;;;;;;;;4994916;28;20523;-66
2023/01/15 00:44:21;;;;;;;4.30;1.70;;;;;;;;;;4996073;28;20053;-49
2023/01/15 00:46:48;;;;;;;4.10;1.23;;;;;;;;;;4995739;28;20051;-54
2023/01/15 00:49:15;;;;;;;4.38;1.40;;;;;;;;;;4996280;28;20051;-50
2023/01/15 00:51:43;;;;;;;3.10;1.23;;;;;;;;;;4995152;28;20455;-49
2023/01/15 00:54:10;;;;;;;2.80;1.30;;;;;;;;;;4995815;28;20050;-50
2023/01/15 00:56:37;;;;;;;4.28;1.38;;;;;;;;;;4995376;28;20051;-53
2023/01/15 00:59:04;;;;;;;1.83;0.93;;;;;;;;;;4995656;28;20046;-50
2023/01/15 01:01:32;;;;;;;2.38;1.02;;;;;;;;;;4991678;28;20474;-53
2023/01/15 01:03:59;;;;;;;5.20;1.88;;;;;;;;;;4995846;28;20049;-52
2023/01/15 01:06:26;;;;;;;4.35;1.42;;;;;;;;;;4995181;28;20125;-53
2023/01/15 01:08:55;;;;;;;4.00;1.40;;;;;;;;;;4993096;28;20428;-53
2023/01/15 01:11:25;;;;;;;3.25;1.35;;;;;;;;;;4984124;28;20129;-51
2023/01/15 01:13:53;;;;;;;3.10;1.57;;;;;;;;;;4984018;28;20500;-49
2023/01/15 01:16:26;;;;;;;4.53;1.40;;;;;;;;;;4981604;28;20535;-50
2023/01/15 01:18:53;;;;;;;2.88;1.20;;;;;;;;;;4985154;28;20131;-49
2023/01/15 01:21:21;;;;;;;2.58;1.20;;;;;;;;;;4980954;28;20065;-52
2023/01/15 01:23:48;;;;;;;2.40;1.17;;;;;;;;;;4995161;28;20050;-52
2023/01/15 01:26:16;;;;;;;4.20;1.30;;;;;;;;;;4994415;28;20042;-55
2023/01/15 01:28:48;;;;;;;2.70;1.20;;;;;;;;;;4995057;28;20050;-53
2023/01/15 01:31:14;;;;;;;3.35;1.20;;;;;;;;;;4994574;28;20496;-54
2023/01/15 01:33:41;;;;;;;2.60;1.30;;;;;;;;;;4994733;28;20080;-54
2023/01/15 01:36:08;;;;;;;2.20;0.90;;;;;;;;;;4994435;28;20057;-56
2023/01/15 01:38:35;;;;;;;1.70;0.90;;;;;;;;;;4994926;28;20126;-51
2023/01/15 01:41:02;;;;;;;2.67;0.88;;;;;;;;;;4994353;28;20053;-54
2023/01/15 01:43:31;;;;;;;2.47;0.98;;;;;;;;;;4994563;28;20397;-49
2023/01/15 01:45:58;;;;;;;2.92;0.90;;;;;;;;;;4994916;28;20051;-49
2023/01/15 01:48:29;;;;;;;1.65;0.90;;;;;;;;;;4994841;28;20058;-53
2023/01/15 01:50:56;;;;;;;;;;;;;;;;;;4995152;28;20419;-51
2023/01/15 01:53:27;;;;;;;1.80;0.75;;;;;;;;;;4994275;28;19968;-53
2023/01/15 01:55:55;;;;;;;1.45;0.82;;;;;;;;;;4994481;28;20054;-54
2023/01/15 01:58:24;;;;;;;2.28;1.00;;;;;;;;;;4994476;28;20047;-52
2023/01/15 02:00:53;;;;;;;2.80;0.90;;;;;;;;;;4994068;28;20112;-52
2023/01/15 02:03:23;;;;;;;1.98;0.90;;;;;;;;;;4993897;28;20046;-48
2023/01/15 02:05:53;;;;;;;2.92;0.98;;;;;;;;;;4994278;28;20141;-54
2023/01/15 02:08:21;;;;;;;3.05;1.20;;;;;;;;;;4994358;28;20548;-48
2023/01/15 02:10:52;;;;;;;3.08;1.20;;;;;;;;;;4993910;28;20038;-52
2023/01/15 02:13:25;;;;;;;2.42;0.80;;;;;;;;;;4994010;28;20109;-50
2023/01/15 02:16:00;;;;;;;2.28;0.90;;;;;;;;;;4994117;28;20050;-54
2023/01/15 02:18:31;;;;;;;2.08;0.88;;;;;;;;;;4994141;28;20042;-51
2023/01/15 02:24:07;;;;;;;1.63;0.77;;;;;;;;;;5013690;28;19921;-51
2023/01/15 02:27:04;;;;;;;2.40;0.90;;;;;;;;;;5000056;28;20072;-53
2023/01/15 02:29:39;;;;;;;1.95;0.70;;;;;;;;;;5017818;28;20073;-50
2023/01/15 02:32:11;;;;;;;2.17;0.90;;;;;;;;;;5007580;28;20066;-50
2023/01/15 02:34:44;;;;;;;2.55;0.95;;;;;;;;;;5008028;28;20046;-52
2023/01/15 02:37:14;;;;;;;1.77;0.80;;;;;;;;;;5015273;28;20458;-49
2023/01/15 02:39:45;;;;;;;2.00;0.85;;;;;;;;;;5009994;28;20049;-49
2023/01/15 02:42:16;;;;;;;1.90;0.77;;;;;;;;;;5004482;28;21760;-51
2023/01/15 02:44:49;;;;;;;2.30;0.70;;;;;;;;;;5003926;28;20054;-52
2023/01/15 02:47:19;;;;;;;2.47;0.80;;;;;;;;;;5004798;28;20118;-49
2023/01/15 02:49:48;;;;;;;2.53;0.80;;;;;;;;;;5005604;28;20046;-50
2023/01/15 02:52:19;;;;;;;2.85;1.00;;;;;;;;;;5002622;28;20057;-50
2023/01/15 02:54:49;;;;;;;2.13;0.90;;;;;;;;;;5002316;28;20058;-51
2023/01/15 02:57:18;;;;;;;3.20;0.90;;;;;;;;;;5002850;28;20124;-51
2023/01/15 02:59:48;;;;;;;1.77;0.80;;;;;;;;;;5003288;28;20054;-53
2023/01/15 03:02:20;;;;;;;1.80;0.80;;;;;;;;;;5006383;28;20046;-53
2023/01/15 03:04:51;;;;;;;3.63;1.10;;;;;;;;;;5007892;28;20057;-51
2023/01/15 03:07:23;;;;;;;2.67;1.00;;;;;;;;;;5004597;28;20049;-52
2023/01/15 03:09:51;;;;;;;2.38;1.10;;;;;;;;;;5002113;28;20059;-52
2023/01/15 03:12:26;;;;;;;2.30;0.90;;;;;;;;;;5002124;28;20046;-50
2023/01/15 03:15:02;;;;;;;1.38;0.80;;;;;;;;;;5006362;28;20100;-52
2023/01/15 03:17:34;;;;;;;2.05;0.80;;;;;;;;;;5007984;28;20101;-50
2023/01/15 03:20:09;;;;;;;1.90;0.90;;;;;;;;;;5001731;28;20140;-53
2023/01/15 03:22:41;;;;;;;2.42;0.90;;;;;;;;;;4995404;28;20082;-53
2023/01/15 03:25:13;;;;;;;1.90;0.75;;;;;;;;;;5004285;28;20160;-53
2023/01/15 03:27:41;;;;;;;2.10;0.60;;;;;;;;;;5002329;28;20061;-52
2023/01/15 03:30:11;;;;;;;3.60;0.90;;;;;;;;;;5006345;28;20049;-50
2023/01/15 03:32:38;;;;;;;2.70;1.03;;;;;;;;;;5005287;28;20058;-52
2023/01/15 03:35:09;;;;;;;1.48;0.70;;;;;;;;;;5004269;28;20546;-50
2023/01/15 03:37:36;;;;;;;2.88;0.98;;;;;;;;;;5004053;28;20050;-51
2023/01/15 03:40:04;;;;;;;1.02;0.70;;;;;;;;;;5002603;28;20052;-51
2023/01/15 03:42:40;;;;;;;3.60;0.88;;;;;;;;;;5004198;28;20105;-51
2023/01/15 03:45:15;;;;;;;0.95;0.70;;;;;;;;;;5006852;28;20045;-50
2023/01/15 03:47:51;;;;;;;2.03;0.90;;;;;;;;;;5012926;28;20057;-51
2023/01/15 03:50:24;;;;;;;2.08;0.88;;;;;;;;;;5007226;28;20062;-53
2023/01/15 03:52:58;;;;;;;2.20;0.80;;;;;;;;;;4997144;28;20130;-52
2023/01/15 03:55:29;;;;;;;1.50;0.88;;;;;;;;;;5001943;28;20137;-52
2023/01/15 03:57:59;;;;;;;1.73;0.80;;;;;;;;;;5016999;28;20414;-50
2023/01/15 04:00:32;;;;;;;2.22;1.15;;;;;;;;;;5013014;28;20049;-50
2023/01/15 04:03:02;;;;;;;1.48;0.70;;;;;;;;;;5016763;28;20057;-52
2023/01/15 04:05:31;;;;;;;1.90;0.95;;;;;;;;;;5013935;28;20417;-49
2023/01/15 04:07:59;;;;;;;1.98;0.65;;;;;;;;;;5015340;28;20042;-50
2023/01/15 04:10:26;;;;;;;1.88;0.80;;;;;;;;;;5001969;28;20047;-48
2023/01/15 04:12:53;;;;;;;1.90;0.77;;;;;;;;;;5004547;28;20093;-48
2023/01/15 04:15:20;;;;;;;1.83;0.80;;;;;;;;;;5004535;28;20054;-52
2023/01/15 04:17:48;;;;;;;2.03;0.85;;;;;;;;;;5004583;28;20050;-49
2023/01/15 04:20:15;;;;;;;2.55;1.25;;;;;;;;;;4999760;28;20056;-50
2023/01/15 04:22:42;;;;;;;1.63;0.80;;;;;;;;;;5005555;28;20121;-50
2023/01/15 04:25:10;;;;;;;1.38;0.70;;;;;;;;;;5002357;28;20062;-49
2023/01/15 04:27:37;;;;;;;2.65;0.80;;;;;;;;;;5003624;28;20108;-48
2023/01/15 04:30:04;;;;;;;2.40;1.05;;;;;;;;;;5004757;28;20039;-48
2023/01/15 04:32:31;;;;;;;1.52;0.85;;;;;;;;;;5003815;28;20076;-51
2023/01/15 04:34:59;;;;;;;1.90;0.80;;;;;;;;;;5001747;28;20046;-48
2023/01/15 04:37:26;;;;;;;2.65;1.15;;;;;;;;;;5004274;28;20043;-52
2023/01/15 04:39:53;;;;;;;2.83;1.00;;;;;;;;;;5002883;28;20495;-51
2023/01/15 04:45:04;;;;;;;2.40;0.98;;;;;;;;;;5004871;28;20141;-53
2023/01/15 04:47:31;;;;;;;1.05;0.60;;;;;;;;;;5006723;28;20060;-50
2023/01/15 04:50:00;;;;;;;2.30;0.90;;;;;;;;;;5002043;28;20046;-50
2023/01/15 04:52:26;;;;;;;2.08;1.10;;;;;;;;;;5004492;28;20053;-52
2023/01/15 04:54:54;;;;;;;3.28;1.38;;;;;;;;;;5002239;28;20454;-53
2023/01/15 04:57:21;;;;;;;2.50;0.90;;;;;;;;;;5002917;28;20057;-49
2023/01/15 04:59:48;;;;;;;2.30;0.82;;;;;;;;;;4998331;28;20153;-52
2023/01/15 05:02:14;;;;;;;2.35;0.98;;;;;;;;;;5008233;28;20062;-49
2023/01/15 05:04:41;;;;;;;2.38;0.93;;;;;;;;;;5004691;28;20518;-51
2023/01/15 05:07:10;;;;;;;2.60;1.08;;;;;;;;;;5004848;28;20046;-51
2023/01/15 05:09:37;;;;;;;3.35;1.02;;;;;;;;;;5006005;28;20115;-53
2023/01/15 05:12:04;;;;;;;1.48;0.80;;;;;;;;;;5005429;28;20052;-50
2023/01/15 05:14:31;;;;;;;2.70;1.17;;;;;;;;;;5003470;28;20101;-49
2023/01/15 05:16:58;;;;;;;1.23;0.70;;;;;;;;;;5008715;28;20054;-52
2023/01/15 05:19:25;;;;;;;1.98;0.70;;;;;;;;;;5003700;28;20089;-50
2023/01/15 05:21:51;;;;;;;2.20;0.80;;;;;;;;;;4999881;28;20058;-51
2023/01/15 05:24:20;;;;;;;1.75;0.80;;;;;;;;;;5006374;28;20069;-54
2023/01/15 05:26:47;;;;;;;2.67;0.95;;;;;;;;;;5004126;28;20038;-53
2023/01/15 05:29:14;;;;;;;2.55;1.10;;;;;;;;;;5007199;28;20053;-51
2023/01/15 05:31:43;;;;;;;2.80;1.20;;;;;;;;;;5003333;28;20057;-51
2023/01/15 05:34:11;;;;;;;3.30;1.30;;;;;;;;;;5002534;28;20100;-49
2023/01/15 05:36:38;;;;;;;2.85;1.40;;;;;;;;;;5008702;28;20050;-50
2023/01/15 05:39:05;;;;;;;2.17;1.08;;;;;;;;;;5008970;28;20050;-53
2023/01/15 05:41:48;;;;;;;4.05;1.35;;;;;;;;;;5006125;28;20054;-53
2023/01/15 05:44:18;;;;;;;1.98;1.00;;;;;;;;;;4984542;28;20054;-50
2023/01/15 05:46:45;;;;;;;1.10;0.70;;;;;;;;;;4994060;28;20076;-50
2023/01/15 05:49:14;;;;;;;1.17;0.50;;;;;;;;;;4999211;28;20054;-49
2023/01/15 05:51:41;;;;;;;0.88;0.40;;;;;;;;;;5006509;28;20526;-52
2023/01/15 05:54:12;;;;;;;0.95;0.65;;;;;;;;;;5018899;28;20451;-49
2023/01/15 05:56:40;;;;;;;;;;;;;;;;;;5012543;28;20105;-50
2023/01/15 05:59:07;;;;;;;1.05;0.50;;;;;;;;;;4999641;28;19925;-49
2023/01/15 06:01:35;;;;;;;1.58;0.50;;;;;;;;;;4999143;28;20050;-49
2023/01/15 06:04:03;;;;;;;0.60;0.30;;;;;;;;;;5000331;28;20184;-50
2023/01/15 06:06:30;;;;;;;1.30;0.40;;;;;;;;;;4999395;28;20046;-49
2023/01/15 06:08:57;;;;;;;0.43;0.30;;;;;;;;;;4999770;28;20100;-51
2023/01/15 06:11:24;;;;;;;1.13;0.75;;;;;;;;;;5001882;28;20474;-49
2023/01/15 06:13:53;;;;;;;0.30;0.30;;;;;;;;;;5007576;28;20058;-50
2023/01/15 06:16:20;;;;;;;0.57;0.30;;;;;;;;;;5007263;28;20046;-49
2023/01/15 06:18:47;;;;;;;0.60;0.30;;;;;;;;;;5008072;28;20554;-52
2023/01/15 06:21:14;;;;;;;0.90;0.30;;;;;;;;;;5004876;28;20384;-49
2023/01/15 06:23:41;;;;;;;0.40;0.30;;;;;;;;;;5004280;28;20077;-53
2023/01/15 06:26:11;;;;;;;0.80;0.35;;;;;;;;;;5006268;28;20196;-48
2023/01/15 06:28:38;;;;;;;0.30;0.30;;;;;;;;;;5004042;28;20073;-51
2023/01/15 06:31:07;;;;;;;0.70;0.30;;;;;;;;;;5007667;28;20050;-50
2023/01/15 06:33:33;;;;;;;0.70;0.40;;;;;;;;;;5001962;28;20491;-53
2023/01/15 06:36:03;;;;;;;0.20;0.20;;;;;;;;;;5003800;28;20050;-50
2023/01/15 06:38:30;;;;;;;0.50;0.30;;;;;;;;;;5005859;28;20078;-49
2023/01/15 06:40:58;;;;;;;0.43;0.30;;;;;;;;;;5003307;28;20550;-50
2023/01/15 06:49:01;;;;;;;0.60;0.30;;;;;;;;;;5003500;28;20254;-49
2023/01/15 06:51:28;;;;;;;0.73;0.30;;;;;;;;;;5005683;28;20047;-51
2023/01/15 06:53:54;;;;;;;0.80;0.40;;;;;;;;;;5003919;28;20046;-52
2023/01/15 06:56:21;;;;;;;0.30;0.22;;;;;;;;;;5006662;28;20100;-53
2023/01/15 06:58:48;;;;;;;0.52;0.30;;;;;;;;;;5007957;28;20065;-52
2023/01/15 07:01:16;;;;;;;0.47;0.20;;;;;;;;;;5006198;28;20050;-49
2023/01/15 07:03:43;;;;;;;0.25;0.25;;;;;;;;;;5004401;28;20104;-51
2023/01/15 07:06:12;;;;;;;0.30;0.20;;;;;;;;;;5005030;28;20549;-50
2023/01/15 07:08:39;;;;;;;0.30;0.30;;;;;;;;;;5005240;28;20053;-49
2023/01/15 07:11:09;;;;;;;0.30;0.20;;;;;;;;;;5004267;28;20507;-50
2023/01/15 07:13:37;;;;;;;0.30;0.20;;;;;;;;;;5003940;28;20057;-49
2023/01/15 07:16:04;;;;;;;0.47;0.20;;;;;;;;;;5003815;28;20054;-53
2023/01/15 07:18:33;;;;;;;0.40;0.20;;;;;;;;;;5005302;28;20054;-51
2023/01/15 07:21:00;;;;;;;0.20;0.20;;;;;;;;;;5002661;28;20133;-49
2023/01/15 07:23:27;;;;;;;0.35;0.25;;;;;;;;;;5003325;28;20499;-50
2023/01/15 07:25:55;;;;;;;0.20;0.20;;;;;;;;;;5003926;28;20496;-49
2023/01/15 07:28:24;;;;;;;0.57;0.22;;;;;;;;;;5002473;28;20559;-50
2023/01/15 07:30:51;;;;;;;0.20;0.20;;;;;;;;;;5002764;28;20539;-51
2023/01/15 07:33:18;;;;;;;0.77;0.20;;;;;;;;;;5003165;28;20042;-48
2023/01/15 07:35:46;;;;;;;0.45;0.30;;;;;;;;;;5002011;28;20058;-51
2023/01/15 07:38:13;;;;;;;0.65;0.30;;;;;;;;;;5005918;28;20341;-51
2023/01/15 07:40:39;;;;;;;0.40;0.30;;;;;;;;;;5004151;28;20110;-52
2023/01/15 07:51:21;;;;;;;1.02;0.30;;;;;;;;;;4996936;28;20064;-50
2023/01/15 07:53:48;;;;;;;1.77;0.30;;;;;;;;;;5015368;28;20042;-53
2023/01/15 07:56:15;;;;;;;1.67;0.50;;;;;;;;;;5016883;28;20050;-51
2023/01/15 07:58:43;;;;;;;0.20;0.20;;;;;;;;;;5008375;28;20122;-51
2023/01/15 08:01:10;;;;;;;1.08;0.30;;;;;;;;;;4997151;28;20058;-52
2023/01/15 08:03:37;;;;;;;0.73;0.30;;;;;;;;;;4996287;28;20043;-52
2023/01/15 08:06:04;;;;;;;0.80;0.30;;;;;;;;;;4997140;28;20047;-49
2023/01/15 08:08:32;;;;;;;0.30;0.25;;;;;;;;;;5010060;28;20549;-50
2023/01/15 08:16:29;;;;;;;0.65;0.30;;;;;;;;;;4991937;28;20053;-50
2023/01/15 08:18:56;;;;;;;1.50;0.40;;;;;;;;;;5004363;28;20073;-53
2023/01/15 08:21:23;;;;;;;0.50;0.30;;;;;;;;;;5005097;28;20042;-48
2023/01/15 08:23:51;;;;;;;0.57;0.30;;;;;;;;;;4998465;28;20050;-50
2023/01/15 08:26:18;;;;;;;1.55;0.63;;;;;;;;;;4997336;28;20082;-49
2023/01/15 08:28:45;;;;;;;0.65;0.22;;;;;;;;;;5011316;28;20054;-50
2023/01/15 08:31:12;;;;;;;0.45;0.25;;;;;;;;;;5018215;22;20116;-55
2023/01/15 08:33:39;;;;;;;1.98;0.30;;;;;;;;;;5011686;28;20054;-56
2023/01/15 08:36:06;;;;;;;1.23;0.40;;;;;;;;;;5013084;28;20053;-51
2023/01/15 08:38:33;;;;;;;0.77;0.30;;;;;;;;;;5015892;28;20057;-53
2023/01/15 08:41:02;;;;;;;0.47;0.30;;;;;;;;;;5015308;28;20429;-52
2023/01/15 08:43:32;;;;;;;0.75;0.40;;;;;;;;;;5015217;28;20050;-55
2023/01/15 08:46:00;;;;;;;0.28;0.22;;;;;;;;;;5015755;28;20089;-63
2023/01/15 08:48:28;;;;;;;1.45;0.30;;;;;;;;;;5015661;28;20041;-64
2023/01/15 08:50:55;;;;;;;0.60;0.20;;;;;;;;;;5015975;28;20074;-55
2023/01/15 08:53:23;;;;;;;2.15;0.52;;;;;;;;;;5015350;28;20046;-64
2023/01/15 08:55:50;;;;;;;2.45;0.50;;;;;;;;;;5015582;28;20053;-65
2023/01/15 08:58:18;;;;;;;2.58;0.73;;;;;;;;;;5016201;28;20127;-68
2023/01/15 09:00:46;;;;;;;0.93;0.30;;;;;;;;;;5016193;28;20046;-65
2023/01/15 09:03:14;;;;;;;0.65;0.38;;;;;;;;;;5015570;28;20354;-66
2023/01/15 09:05:41;;;;;;;0.60;0.30;;;;;;;;;;5014566;28;20045;-52
2023/01/15 09:08:08;;;;;;;1.08;0.40;;;;;;;;;;5000642;28;20451;-51
2023/01/15 09:10:35;;;;;;;0.25;0.25;;;;;;;;;;5014942;28;20041;-50
2023/01/15 09:13:02;;;;;;;0.98;0.40;;;;;;;;;;5014908;28;20045;-51
2023/01/15 09:15:32;;;;;;;0.57;0.35;;;;;;;;;;5014113;28;20042;-50
2023/01/15 09:17:59;;;;;;;1.48;0.80;;;;;;;;;;5014746;28;20056;-51
2023/01/15 09:20:26;;;;;;;0.98;0.40;;;;;;;;;;5014468;28;20050;-51
2023/01/15 09:22:53;;;;;;;0.73;0.50;;;;;;;;;;5010206;28;20100;-54
2023/01/15 09:25:22;;;;;;;1.00;0.50;;;;;;;;;;5015867;28;20054;-64
2023/01/15 09:27:50;;;;;;;0.85;0.38;;;;;;;;;;5013791;28;20148;-51
2023/01/15 09:30:20;;;;;;;1.10;0.43;;;;;;;;;;5014529;28;20046;-52
2023/01/15 09:32:48;;;;;;;1.85;0.50;;;;;;;;;;5008837;28;20049;-52
2023/01/15 09:35:15;;;;;;;0.98;0.40;;;;;;;;;;5010242;28;20455;-51
2023/01/15 09:37:42;;;;;;;0.85;0.35;;;;;;;;;;5011016;28;20060;-52
2023/01/15 09:40:24;;;;;;;1.35;0.75;;;;;;;;;;5013605;28;20113;-53
2023/01/15 09:42:56;;;;;;;1.10;0.40;;;;;;;;;;5013934;28;20054;-52
2023/01/15 09:45:26;;;;;;;0.63;0.40;;;;;;;;;;5014731;28;20054;-54
2023/01/15 09:48:13;;;;;;;0.60;0.33;;;;;;;;;;5013991;28;20096;-52
2023/01/15 09:50:55;;;;;;;1.13;0.40;;;;;;;;;;5015126;28;20100;-54
2023/01/15 09:53:45;;;;;;;0.85;0.40;;;;;;;;;;4994915;28;20054;-53
2023/01/15 09:56:19;;;;;;;0.63;0.40;;;;;;;;;;4997257;28;20042;-53
2023/01/15 09:58:46;;;;;;;1.45;0.65;;;;;;;;;;5014566;28;20049;-53
2023/01/15 10:01:16;;;;;;;1.02;0.40;;;;;;;;;;5013663;28;20045;-52
2023/01/15 10:03:49;;;;;;;1.00;0.45;;;;;;;;;;5014302;28;20110;-53
2023/01/15 10:06:22;;;;;;;1.17;0.60;;;;;;;;;;5013953;28;20388;-52
2023/01/15 10:08:50;;;;;;;2.75;0.68;;;;;;;;;;5014358;28;20061;-53
2023/01/15 10:14:39;;;;;;;1.33;0.40;;;;;;;;;;5014334;28;20061;-52
2023/01/15 10:17:35;;;;;;;0.75;0.20;;;;;;;;;;5012767;28;20137;-54
2023/01/15 10:20:03;;;;;;;0.80;0.40;;;;;;;;;;4997829;28;20064;-55
2023/01/15 10:22:44;;;;;;;0.50;0.30;;;;;;;;;;5013510;28;20470;-51
2023/01/15 10:25:16;;;;;;;0.43;0.30;;;;;;;;;;5014076;28;20049;-52
2023/01/15 10:27:47;;;;;;;0.57;0.30;;;;;;;;;;5013112;28;20054;-56
2023/01/15 10:30:16;;;;;;;;;;;;;;;;;;4995010;28;20108;-51
2023/01/15 10:32:47;;;;;;;1.00;0.30;;;;;;;;;;5008772;28;19921;-51
2023/01/15 10:35:36;;;;;;;0.60;0.38;;;;;;;;;;5013621;28;20486;-54
2023/01/15 10:38:14;;;;;;;0.63;0.40;;;;;;;;;;5013530;28;20050;-52
2023/01/15 10:40:53;;;;;;;0.45;0.30;;;;;;;;;;5013303;28;20045;-50
2023/01/15 10:43:28;;;;;;;0.52;0.30;;;;;;;;;;5012945;28;20457;-53
2023/01/15 10:45:57;;;;;;;0.80;0.50;;;;;;;;;;4993612;28;20081;-50
2023/01/15 10:48:32;;;;;;;0.70;0.40;;;;;;;;;;4994156;28;20112;-55
2023/01/15 10:51:03;;;;;;;1.52;0.50;;;;;;;;;;5013516;28;20057;-51
2023/01/15 10:53:38;;;;;;;1.17;0.63;;;;;;;;;;5012830;28;20100;-53
2023/01/15 10:56:11;;;;;;;0.80;0.45;;;;;;;;;;5012896;28;20045;-53
2023/01/15 10:58:45;;;;;;;1.00;0.50;;;;;;;;;;5012904;28;20058;-52
2023/01/15 11:01:18;;;;;;;0.50;0.30;;;;;;;;;;5013302;28;20129;-52
2023/01/15 11:03:45;;;;;;;1.02;0.50;;;;;;;;;;5012725;28;20553;-53
2023/01/15 11:06:16;;;;;;;1.98;1.00;;;;;;;;;;4996439;28;20097;-52
2023/01/15 11:08:45;;;;;;;0.50;0.47;;;;;;;;;;4993771;28;20046;-51
2023/01/15 11:11:20;;;;;;;0.88;0.35;;;;;;;;;;5012904;28;20054;-51
2023/01/15 11:19:38;;;;;;;1.92;0.60;;;;;;;;;;5012731;28;20107;-50
2023/01/15 11:22:14;;;;;;;0.68;0.60;;;;;;;;;;5012448;28;20046;-52
2023/01/15 11:24:50;;;;;;;1.15;0.50;;;;;;;;;;5012585;28;20100;-51
2023/01/15 11:27:20;;;;;;;0.82;0.40;;;;;;;;;;5013161;28;20045;-52
2023/01/15 11:29:52;;;;;;;0.65;0.40;;;;;;;;;;5012689;28;20116;-55
2023/01/15 11:32:23;;;;;;;2.00;0.63;;;;;;;;;;5012501;28;20072;-56
2023/01/15 11:34:54;;;;;;;2.28;0.80;;;;;;;;;;5012402;28;20107;-52
2023/01/15 11:37:22;;;;;;;;;;;;;;;;;;5013075;28;20049;-50
2023/01/15 11:39:53;;;;;;;0.57;0.30;;;;;;;;;;5012408;28;20012;-52
2023/01/15 11:50:53;;;;;;;1.25;0.55;;;;;;;;;;5012436;28;20156;-53
2023/01/15 11:53:25;;;;;;;1.40;0.50;;;;;;;;;;5012176;28;20400;-51
2023/01/15 11:55:55;;;;;;;1.15;0.52;;;;;;;;;;5011991;28;20525;-52
2023/01/15 11:58:23;;;;;;;1.50;0.43;;;;;;;;;;5012212;28;20049;-55
2023/01/15 12:00:52;;;;;;;1.27;0.60;;;;;;;;;;5012142;28;20054;-50
2023/01/15 12:03:25;;;;;;;0.88;0.60;;;;;;;;;;5011986;28;20506;-57
2023/01/15 12:05:57;;;;;;;0.50;0.40;;;;;;;;;;5012233;28;20046;-53
2023/01/15 12:08:38;;;;;;;1.45;0.50;;;;;;;;;;5012201;28;20054;-53
2023/01/15 12:11:17;;;;;;;0.98;0.45;;;;;;;;;;5013177;28;20507;-54
2023/01/15 12:13:53;;;;;;;0.95;0.60;;;;;;;;;;5016360;28;20482;-53
2023/01/15 12:16:30;;;;;;;1.70;0.80;;;;;;;;;;4996400;28;20046;-51
2023/01/15 12:18:59;;;;;;;1.33;0.60;;;;;;;;;;4996896;28;20101;-50
2023/01/15 12:21:50;;;;;;;0.73;0.50;;;;;;;;;;5016317;28;20096;-52
2023/01/15 12:24:48;;;;;;;1.65;0.55;;;;;;;;;;5012535;28;20058;-50
2023/01/15 12:27:28;;;;;;;1.05;0.60;;;;;;;;;;5016559;28;20487;-55
2023/01/15 12:30:00;;;;;;;1.50;0.90;;;;;;;;;;5015647;28;20096;-52
2023/01/15 12:32:31;;;;;;;1.98;0.63;;;;;;;;;;5015821;28;20046;-54
2023/01/15 12:35:02;;;;;;;2.80;1.00;;;;;;;;;;5015768;28;20503;-55
2023/01/15 12:37:31;;;;;;;;;;;;;;;;;;5016463;28;20046;-56
2023/01/15 12:40:15;;;;;;;1.52;0.70;;;;;;;;;;5015675;28;19967;-54
2023/01/15 12:45:34;;;;;;;1.88;0.80;;;;;;;;;;5016178;28;20056;-51
2023/01/15 12:48:12;;;;;;;1.70;0.75;;;;;;;;;;5015507;28;20052;-52
2023/01/15 12:50:43;;;;;;;1.20;0.70;;;;;;;;;;5015400;28;20081;-53
2023/01/15 12:53:16;;;;;;;1.35;0.80;;;;;;;;;;4995602;28;20112;-53
2023/01/15 12:55:50;;;;;;;1.75;0.70;;;;;;;;;;4995501;28;20070;-55
2023/01/15 12:58:38;;;;;;;1.92;0.77;;;;;;;;;;5015698;28;20046;-52
2023/01/15 13:01:13;;;;;;;2.75;0.80;;;;;;;;;;5015578;28;20092;-51
2023/01/15 13:03:51;;;;;;;1.52;0.70;;;;;;;;;;5015318;28;20042;-51
2023/01/15 13:06:19;;;;;;;1.80;0.80;;;;;;;;;;5015219;28;20049;-54
2023/01/15 13:08:55;;;;;;;1.42;0.60;;;;;;;;;;5015157;28;20567;-52
2023/01/15 13:11:23;;;;;;;1.63;0.90;;;;;;;;;;5014898;28;20527;-52
2023/01/15 13:13:57;;;;;;;1.30;0.70;;;;;;;;;;5014864;28;20054;-51
2023/01/15 13:16:37;;;;;;;1.83;0.95;;;;;;;;;;5015046;28;20042;-53
2023/01/15 13:19:17;;;;;;;2.42;0.95;;;;;;;;;;5015076;28;20126;-53
2023/01/15 13:21:46;;;;;;;1.33;0.80;;;;;;;;;;5014077;28;20042;-53
2023/01/15 13:24:33;;;;;;;0.70;0.60;;;;;;;;;;5015035;28;20124;-53
2023/01/15 13:27:24;;;;;;;1.88;0.80;;;;;;;;;;4995743;28;20459;-48
2023/01/15 13:30:04;;;;;;;3.28;1.00;;;;;;;;;;4997699;28;20054;-55
2023/01/15 13:32:33;;;;;;;;;;;;;;;;;;5014914;28;20042;-52
2023/01/15 13:35:07;;;;;;;1.52;0.90;;;;;;;;;;5014566;28;19930;-55
2023/01/15 13:37:42;;;;;;;2.30;0.80;;;;;;;;;;5014610;28;20060;-51
2023/01/15 13:40:16;;;;;;;1.15;0.50;;;;;;;;;;5014453;28;20121;-53
2023/01/15 13:42:48;;;;;;;0.70;0.40;;;;;;;;;;5014668;28;20066;-51
2023/01/15 13:45:26;;;;;;;0.55;0.38;;;;;;;;;;5014635;28;20050;-52
2023/01/15 13:47:57;;;;;;;1.17;0.50;;;;;;;;;;5014912;28;20490;-52
2023/01/15 13:50:30;;;;;;;1.15;0.55;;;;;;;;;;5014550;28;20038;-53
2023/01/15 13:53:13;;;;;;;1.73;0.40;;;;;;;;;;5014520;28;20472;-52
2023/01/15 13:55:43;;;;;;;2.75;0.47;;;;;;;;;;5014424;28;20054;-54
2023/01/15 13:58:21;;;;;;;1.05;0.63;;;;;;;;;;5014421;28;20058;-51
2023/01/15 14:00:48;;;;;;;0.47;0.30;;;;;;;;;;5014126;28;20104;-50
2023/01/15 14:03:27;;;;;;;1.00;0.40;;;;;;;;;;5013972;28;20053;-50
2023/01/15 14:05:55;;;;;;;0.65;0.35;;;;;;;;;;5013910;28;20046;-52
2023/01/15 14:08:26;;;;;;;0.43;0.40;;;;;;;;;;5014552;28;20042;-52
2023/01/15 14:10:54;;;;;;;0.75;0.40;;;;;;;;;;5014023;28;20049;-53
2023/01/15 14:13:51;;;;;;;0.95;0.40;;;;;;;;;;5014221;28;20234;-54
2023/01/15 14:16:41;;;;;;;0.52;0.40;;;;;;;;;;5013623;28;20042;-52
2023/01/15 14:19:26;;;;;;;1.47;0.50;;;;;;;;;;5010915;28;20046;-50
2023/01/15 14:22:07;;;;;;;1.20;0.63;;;;;;;;;;5013276;28;20415;-52
2023/01/15 14:24:59;;;;;;;1.45;0.40;;;;;;;;;;5013717;28;20058;-52
2023/01/15 14:27:44;;;;;;;0.55;0.50;;;;;;;;;;4994622;28;20069;-54
2023/01/15 14:30:28;;;;;;;0.73;0.43;;;;;;;;;;4997027;28;20095;-52
2023/01/15 14:33:09;;;;;;;1.13;0.60;;;;;;;;;;5013363;28;20107;-51
2023/01/15 14:35:37;;;;;;;1.15;0.50;;;;;;;;;;5030709;22;20070;-75
2023/01/15 14:38:06;;;;;;;0.90;0.50;;;;;;;;;;5013934;28;20053;-74
2023/01/15 14:40:35;;;;;;;0.80;0.50;;;;;;;;;;5008275;28;20046;-74
2023/01/15 14:43:18;;;;;;;0.88;0.40;;;;;;;;;;4993826;28;20050;-74
2023/01/15 14:45:48;;;;;;;1.52;0.50;;;;;;;;;;4994078;28;20056;-76
2023/01/15 14:48:19;;;;;;;1.50;0.60;;;;;;;;;;4996379;28;20046;-76
2023/01/15 14:50:47;;;;;;;1.15;0.40;;;;;;;;;;4995768;28;20133;-76
2023/01/15 14:53:29;;;;;;;0.70;0.40;;;;;;;;;;4995071;28;20124;-75
2023/01/15 14:55:59;;;;;;;0.60;0.40;;;;;;;;;;4994325;28;20073;-74
2023/01/15 14:58:39;;;;;;;1.27;0.50;;;;;;;;;;4994170;28;20505;-75
2023/01/15 15:01:17;;;;;;;1.33;0.60;;;;;;;;;;4993606;28;20050;-75
2023/01/15 15:03:51;;;;;;;0.95;0.60;;;;;;;;;;4974124;28;20592;-74
2023/01/15 15:06:21;;;;;;;1.10;0.50;;;;;;;;;;4993627;28;20046;-75
2023/01/15 15:08:50;;;;;;;1.95;0.80;;;;;;;;;;4993916;28;20046;-75
2023/01/15 15:14:11;;;;;;;0.82;0.50;;;;;;;;;;4993420;28;20082;-74
2023/01/15 15:16:46;;;;;;;1.17;0.60;;;;;;;;;;4992159;28;20058;-74
2023/01/15 15:19:18;;;;;;;2.35;0.57;;;;;;;;;;4991639;28;20142;-73
2023/01/15 15:21:47;;;;;;;0.75;0.40;;;;;;;;;;4988956;28;20053;-74
2023/01/15 15:24:21;;;;;;;1.25;0.40;;;;;;;;;;4991453;28;20073;-73
2023/01/15 15:26:47;;;;;;;0.75;0.47;;;;;;;;;;4987550;28;20539;-73
2023/01/15 15:29:16;;;;;;;1.23;0.50;;;;;;;;;;4983730;28;20138;-76
2023/01/15 15:31:48;;;;;;;3.90;0.70;;;;;;;;;;4993709;28;20046;-75
2023/01/15 15:34:20;;;;;;;1.63;0.47;;;;;;;;;;4993819;28;20078;-76
2023/01/15 15:36:47;;;;;;;1.48;0.60;;;;;;;;;;4991590;28;20129;-77
2023/01/15 15:39:20;;;;;;;1.75;0.70;;;;;;;;;;4992354;28;20109;-77
2023/01/15 15:50:22;;;;;;;1.63;0.90;;;;;;;;;;4987672;28;20132;-75
2023/01/15 15:52:49;;;;;;;2.25;0.80;;;;;;;;;;4984667;28;20049;-77
2023/01/15 15:55:17;;;;;;;2.05;0.93;;;;;;;;;;4986957;28;20042;-76
2023/01/15 15:57:46;;;;;;;2.05;0.68;;;;;;;;;;4985531;28;20074;-77
2023/01/15 16:00:22;;;;;;;1.48;0.80;;;;;;;;;;4988325;28;20043;-75
2023/01/15 16:02:52;;;;;;;2.13;0.90;;;;;;;;;;4987815;28;20120;-76
2023/01/15 16:05:24;;;;;;;2.40;0.98;;;;;;;;;;4983928;28;20050;-74
2023/01/15 16:07:51;;;;;;;2.60;0.85;;;;;;;;;;4990794;28;20058;-75
2023/01/15 16:10:22;;;;;;;1.33;0.70;;;;;;;;;;4985709;28;20046;-76